Time;durP1;ratioP1;P1;durP2;ratioP2;P2;SDS_P1;SDS_P2;PMS_P1;PMS_P2;Temp;Humidity;BMP_temperature;BMP_pressure;BME280_temperature;BME280_humidity;BME280_pressure;Samples;Min_cycle;Max_cycle;Signal;HPM_P1;HPM_P2
2022/10/29 00:01:03;;;;;;;20.48;7.15;;;18.70;99.90;;;;;;4983546;28;20046;-79
2022/10/29 00:03:30;;;;;;;17.58;7.10;;;18.70;99.90;;;;;;5032780;23;20433;-83
2022/10/29 00:05:58;;;;;;;23.55;7.28;;;18.70;99.90;;;;;;5048521;28;20080;-83
2022/10/29 00:08:26;;;;;;;24.88;7.78;;;18.70;99.90;;;;;;5048917;28;20045;-81
2022/10/29 00:10:52;;;;;;;21.08;7.05;;;18.60;99.90;;;;;;5046857;28;20598;-81
2022/10/29 00:13:19;;;;;;;23.33;7.60;;;18.70;99.90;;;;;;5041855;28;20088;-83
2022/10/29 00:15:46;;;;;;;21.52;7.80;;;18.70;99.90;;;;;;5048329;28;20091;-83
2022/10/29 00:18:15;;;;;;;20.60;7.30;;;18.60;99.90;;;;;;5037026;28;20041;-81
2022/10/29 00:20:41;;;;;;;20.92;7.30;;;18.60;99.90;;;;;;5031599;28;20123;-81
2022/10/29 00:23:08;;;;;;;21.30;7.68;;;18.60;99.90;;;;;;5047275;28;20056;-81
2022/10/29 00:25:35;;;;;;;25.15;8.20;;;18.60;99.90;;;;;;5048179;28;20052;-81
2022/10/29 00:28:02;;;;;;;22.35;7.40;;;18.60;99.90;;;;;;5049083;28;20049;-81
2022/10/29 00:30:29;;;;;;;22.20;7.20;;;18.60;99.90;;;;;;5048430;28;20049;-82
2022/10/29 00:32:56;;;;;;;24.30;7.68;;;18.60;99.90;;;;;;5041409;28;20048;-81
2022/10/29 00:35:25;;;;;;;19.05;7.22;;;18.60;99.90;;;;;;5048251;28;20048;-81
2022/10/29 00:37:52;;;;;;;18.45;7.10;;;18.60;99.90;;;;;;5042804;28;20189;-81
2022/10/29 00:40:19;;;;;;;18.30;6.85;;;18.60;99.90;;;;;;5028954;28;20046;-82
2022/10/29 00:42:46;;;;;;;24.20;6.80;;;18.60;99.90;;;;;;5033254;28;20047;-82
2022/10/29 00:45:19;;;;;;;17.55;7.32;;;18.60;99.90;;;;;;5047258;28;20785;-82
2022/10/29 00:47:49;;;;;;;17.65;6.78;;;18.60;99.90;;;;;;5040670;28;20068;-82
2022/10/29 00:50:16;;;;;;;23.42;7.85;;;18.60;99.90;;;;;;5030044;28;20056;-82
2022/10/29 00:52:48;;;;;;;23.25;7.05;;;18.60;99.90;;;;;;5043717;28;20485;-82
2022/10/29 00:55:15;;;;;;;22.85;6.95;;;18.60;99.90;;;;;;5051772;28;20053;-82
2022/10/29 00:57:47;;;;;;;14.75;7.05;;;18.60;99.90;;;;;;5044352;28;20056;-82
2022/10/29 01:00:15;;;;;;;21.92;7.55;;;18.60;99.90;;;;;;5051914;28;20040;-82
2022/10/29 01:02:43;;;;;;;17.70;6.97;;;18.60;99.90;;;;;;5040883;28;20038;-82
2022/10/29 01:05:12;;;;;;;21.13;7.18;;;18.60;99.90;;;;;;5013989;28;20050;-82
2022/10/29 01:07:39;;;;;;;17.20;7.03;;;18.60;99.90;;;;;;5025281;28;20398;-82
2022/10/29 01:10:11;;;;;;;20.35;7.75;;;18.60;99.90;;;;;;5036024;28;20044;-82
2022/10/29 01:12:57;;;;;;;17.30;7.40;;;18.60;99.90;;;;;;5043813;28;20045;-82
2022/10/29 01:15:29;;;;;;;20.23;6.93;;;18.60;99.90;;;;;;5044827;28;20045;-82
2022/10/29 01:18:07;;;;;;;21.88;7.03;;;18.60;99.90;;;;;;5029507;28;20140;-82
2022/10/29 01:21:19;;;;;;;23.48;7.32;;;18.50;99.90;;;;;;5036199;28;20045;-82
2022/10/29 01:24:03;;;;;;;;;;;18.50;99.90;;;;;;5029199;28;20049;-82
2022/10/29 01:26:59;;;;;;;29.75;6.90;;;18.50;99.90;;;;;;5020397;28;20301;-82
2022/10/29 01:29:41;;;;;;;24.90;8.05;;;18.50;99.90;;;;;;5032121;28;20049;-82
2022/10/29 01:32:11;;;;;;;23.05;7.25;;;18.50;99.90;;;;;;5045648;28;20050;-82
2022/10/29 01:34:42;;;;;;;23.13;7.33;;;18.40;99.90;;;;;;5050926;28;20044;-82
2022/10/29 01:37:14;;;;;;;24.48;6.88;;;18.40;99.90;;;;;;5043969;28;20053;-82
2022/10/29 01:39:44;;;;;;;18.17;7.05;;;18.40;99.90;;;;;;5031928;28;20042;-82
2022/10/29 01:42:13;;;;;;;23.20;8.15;;;18.40;99.90;;;;;;5043232;28;20125;-81
2022/10/29 01:44:46;;;;;;;18.60;7.35;;;18.30;99.90;;;;;;5049189;28;20048;-82
2022/10/29 01:47:16;;;;;;;18.27;7.45;;;18.30;99.90;;;;;;5050823;28;20376;-82
2022/10/29 01:49:45;;;;;;;24.77;7.65;;;18.30;99.90;;;;;;5051596;28;20056;-82
2022/10/29 01:52:14;;;;;;;17.80;7.25;;;18.30;99.90;;;;;;5044847;28;20558;-82
2022/10/29 01:54:42;;;;;;;18.48;7.45;;;18.30;99.90;;;;;;5031406;28;20053;-82
2022/10/29 01:57:30;;;;;;;21.45;7.15;;;18.30;99.90;;;;;;5036209;28;20119;-82
2022/10/29 02:00:00;;;;;;;21.35;7.45;;;18.20;99.90;;;;;;5045703;28;20059;-82
2022/10/29 02:02:34;;;;;;;19.73;7.82;;;18.20;99.90;;;;;;5049124;28;20056;-82
2022/10/29 02:05:12;;;;;;;20.02;7.22;;;18.20;99.90;;;;;;5032803;28;20059;-81
2022/10/29 02:07:46;;;;;;;19.83;7.80;;;18.20;99.90;;;;;;5040843;28;20118;-82
2022/10/29 02:10:19;;;;;;;21.15;7.38;;;18.10;99.90;;;;;;5050631;28;20041;-82
2022/10/29 02:12:47;;;;;;;20.52;7.55;;;18.10;99.90;;;;;;5033785;28;20045;-82
2022/10/29 02:15:17;;;;;;;18.17;7.43;;;18.10;99.90;;;;;;5041325;28;20053;-82
2022/10/29 02:17:45;;;;;;;21.98;7.13;;;18.00;99.90;;;;;;5049521;28;20515;-82
2022/10/29 02:20:14;;;;;;;28.45;8.30;;;18.00;99.90;;;;;;5051028;28;20037;-82
2022/10/29 02:22:41;;;;;;;22.15;7.53;;;18.00;99.90;;;;;;5035383;28;20049;-82
2022/10/29 02:25:10;;;;;;;18.10;7.53;;;18.00;99.90;;;;;;5030410;28;20491;-82
2022/10/29 02:27:37;;;;;;;26.98;7.45;;;17.90;99.90;;;;;;5039992;28;20046;-81
2022/10/29 02:30:05;;;;;;;20.08;7.10;;;17.90;99.90;;;;;;5048784;28;20505;-82
2022/10/29 02:32:32;;;;;;;15.27;7.75;;;17.90;99.90;;;;;;5038124;28;20048;-82
2022/10/29 02:35:01;;;;;;;19.23;7.60;;;17.90;99.90;;;;;;5042739;28;20053;-82
2022/10/29 02:37:28;;;;;;;19.33;7.65;;;17.90;99.90;;;;;;5036423;28;20047;-82
2022/10/29 02:39:55;;;;;;;19.77;7.47;;;17.90;99.90;;;;;;5050774;28;20116;-82
2022/10/29 02:42:22;;;;;;;23.83;7.60;;;17.80;99.90;;;;;;5034145;28;20045;-82
2022/10/29 02:44:49;;;;;;;23.70;8.00;;;17.80;99.90;;;;;;5030644;28;20049;-82
2022/10/29 02:47:16;;;;;;;24.42;8.07;;;17.80;99.90;;;;;;5044986;28;20037;-82
2022/10/29 02:49:43;;;;;;;19.30;7.88;;;17.70;99.90;;;;;;5050901;28;20409;-82
2022/10/29 02:52:11;;;;;;;22.65;7.32;;;17.70;99.90;;;;;;5020582;28;20053;-82
2022/10/29 02:54:38;;;;;;;22.73;6.95;;;17.70;99.90;;;;;;5030008;28;20041;-82
2022/10/29 02:57:05;;;;;;;23.80;7.82;;;17.70;99.90;;;;;;5042018;28;20125;-82
2022/10/29 02:59:32;;;;;;;17.20;7.60;;;17.60;99.90;;;;;;5050241;28;20587;-81
2022/10/29 03:01:59;;;;;;;34.28;8.18;;;17.60;99.90;;;;;;5039829;28;20057;-81
2022/10/29 03:04:26;;;;;;;18.02;7.93;;;17.60;99.90;;;;;;5043878;28;20037;-82
2022/10/29 03:06:53;;;;;;;19.63;7.20;;;17.60;99.90;;;;;;5042363;28;20041;-82
2022/10/29 03:09:21;;;;;;;15.50;6.72;;;17.60;99.90;;;;;;5049103;28;20788;-82
2022/10/29 03:11:48;;;;;;;17.10;7.55;;;17.60;99.90;;;;;;5050176;28;20047;-81
2022/10/29 03:14:15;;;;;;;18.23;6.75;;;17.50;99.90;;;;;;5048497;28;20519;-82
2022/10/29 03:16:42;;;;;;;20.73;7.35;;;17.50;99.90;;;;;;5038903;28;20037;-81
2022/10/29 03:19:09;;;;;;;22.42;7.50;;;17.50;99.90;;;;;;5045904;28;20049;-81
2022/10/29 03:21:36;;;;;;;21.05;7.80;;;17.50;99.90;;;;;;5045083;28;20052;-82
2022/10/29 03:24:04;;;;;;;23.95;7.47;;;17.50;99.90;;;;;;5049812;28;20037;-81
2022/10/29 03:26:32;;;;;;;21.23;8.02;;;17.40;99.90;;;;;;5048984;28;20045;-81
2022/10/29 03:28:59;;;;;;;18.02;7.20;;;17.40;99.90;;;;;;5049025;28;20049;-82
2022/10/29 03:31:26;;;;;;;21.90;8.00;;;17.40;99.90;;;;;;5043616;28;20107;-82
2022/10/29 03:33:53;;;;;;;19.00;6.80;;;17.40;99.90;;;;;;5049788;28;20378;-81
2022/10/29 03:36:20;;;;;;;16.73;7.28;;;17.40;99.90;;;;;;5032130;28;20110;-81
2022/10/29 03:38:47;;;;;;;20.33;7.13;;;17.40;99.90;;;;;;5042804;28;20442;-81
2022/10/29 03:41:14;;;;;;;24.55;7.55;;;17.40;99.90;;;;;;5049224;28;20068;-81
2022/10/29 03:43:42;;;;;;;19.58;7.75;;;17.40;99.90;;;;;;5049584;28;20051;-81
2022/10/29 03:46:09;;;;;;;13.98;7.00;;;17.40;99.90;;;;;;5047166;28;20061;-82
2022/10/29 03:48:36;;;;;;;24.70;8.55;;;17.40;99.90;;;;;;5048719;28;20045;-81
2022/10/29 03:51:05;;;;;;;18.98;8.25;;;17.30;99.90;;;;;;5045509;28;20048;-82
2022/10/29 03:53:33;;;;;;;17.70;7.68;;;17.30;99.90;;;;;;5048668;28;20068;-81
2022/10/29 03:56:00;;;;;;;20.17;7.80;;;17.30;99.90;;;;;;5047077;28;20051;-81
2022/10/29 03:58:27;;;;;;;22.33;7.47;;;17.30;99.90;;;;;;5031979;28;20041;-81
2022/10/29 04:00:56;;;;;;;18.17;7.43;;;17.30;99.90;;;;;;5047695;28;20501;-81
2022/10/29 04:03:24;;;;;;;19.95;7.85;;;17.30;99.90;;;;;;5049007;28;20532;-82
2022/10/29 04:05:50;;;;;;;21.55;7.50;;;17.30;99.90;;;;;;5048521;28;20048;-82
2022/10/29 04:08:17;;;;;;;20.58;7.95;;;17.30;99.90;;;;;;5047653;28;20497;-81
2022/10/29 04:10:46;;;;;;;22.30;7.20;;;17.30;99.90;;;;;;5048445;28;20059;-82
2022/10/29 04:13:13;;;;;;;24.00;7.57;;;17.30;99.90;;;;;;5020949;28;20045;-82
2022/10/29 04:15:40;;;;;;;20.77;8.02;;;17.40;99.90;;;;;;5028613;28;20055;-82
2022/10/29 04:18:08;;;;;;;22.95;8.52;;;17.30;99.90;;;;;;5041807;28;20056;-81
2022/10/29 04:20:36;;;;;;;22.50;8.18;;;17.30;99.90;;;;;;5040683;28;20041;-82
2022/10/29 04:23:02;;;;;;;18.02;7.97;;;17.30;99.90;;;;;;5044696;28;20037;-82
2022/10/29 04:25:29;;;;;;;19.63;7.72;;;17.30;99.90;;;;;;5045811;28;20055;-82
2022/10/29 04:27:57;;;;;;;24.35;8.23;;;17.30;99.90;;;;;;5019737;28;20049;-82
2022/10/29 04:30:24;;;;;;;24.35;7.47;;;17.30;99.90;;;;;;5042576;28;20041;-82
2022/10/29 04:32:51;;;;;;;28.00;8.93;;;17.20;99.90;;;;;;5047585;28;20328;-81
2022/10/29 04:35:19;;;;;;;24.58;7.97;;;17.20;99.90;;;;;;5034164;28;20049;-82
2022/10/29 04:37:46;;;;;;;25.08;7.75;;;17.30;99.90;;;;;;5047700;28;20045;-82
2022/10/29 04:40:13;;;;;;;30.45;7.95;;;17.20;99.90;;;;;;5043399;28;20056;-82
2022/10/29 04:42:40;;;;;;;20.10;7.93;;;17.20;99.90;;;;;;5048754;28;20135;-82
2022/10/29 04:45:08;;;;;;;20.60;8.00;;;17.20;99.90;;;;;;5040660;28;20040;-82
2022/10/29 04:47:35;;;;;;;22.15;8.00;;;17.20;99.90;;;;;;5029662;28;20128;-82
2022/10/29 04:50:02;;;;;;;22.05;8.35;;;17.20;99.90;;;;;;5045702;28;20053;-82
2022/10/29 04:52:30;;;;;;;19.88;7.63;;;17.20;99.90;;;;;;5047427;28;20068;-82
2022/10/29 04:54:57;;;;;;;22.13;8.07;;;17.20;99.90;;;;;;5043988;28;20041;-80
2022/10/29 04:57:24;;;;;;;21.23;8.00;;;17.20;99.90;;;;;;5028728;28;20046;-79
2022/10/29 04:59:54;;;;;;;24.10;8.40;;;17.20;99.90;;;;;;5051387;28;20063;-79
2022/10/29 05:02:20;;;;;;;19.35;7.68;;;17.10;99.90;;;;;;5038048;28;20685;-80
2022/10/29 05:04:47;;;;;;;30.17;8.40;;;17.20;99.90;;;;;;5027800;28;20134;-81
2022/10/29 05:07:14;;;;;;;23.73;8.18;;;17.10;99.90;;;;;;5015467;28;20045;-80
2022/10/29 05:09:42;;;;;;;20.33;7.70;;;17.10;99.90;;;;;;5041816;28;20041;-82
2022/10/29 05:12:09;;;;;;;20.63;7.97;;;17.10;99.90;;;;;;5043176;28;20060;-82
2022/10/29 05:14:38;;;;;;;19.95;8.15;;;17.20;99.90;;;;;;5027977;28;20050;-82
2022/10/29 05:17:05;;;;;;;32.30;8.93;;;17.10;99.90;;;;;;5030179;28;20080;-83
2022/10/29 05:19:32;;;;;;;20.70;7.90;;;17.10;99.90;;;;;;5044491;28;20072;-83
2022/10/29 05:21:59;;;;;;;22.55;8.43;;;17.10;99.90;;;;;;5047341;28;20429;-83
2022/10/29 05:24:25;;;;;;;30.80;9.60;;;17.10;99.90;;;;;;5027566;28;20053;-83
2022/10/29 05:26:54;;;;;;;20.95;8.93;;;17.10;99.90;;;;;;5039850;28;20041;-83
2022/10/29 05:29:22;;;;;;;23.40;8.65;;;17.10;99.90;;;;;;5047577;28;20434;-82
2022/10/29 05:31:49;;;;;;;23.92;9.25;;;17.10;99.90;;;;;;5048173;28;20057;-81
2022/10/29 05:34:15;;;;;;;22.15;7.82;;;17.10;99.90;;;;;;5035784;28;20045;-82
2022/10/29 05:36:42;;;;;;;27.48;10.05;;;17.10;99.90;;;;;;5045820;28;20040;-88
2022/10/29 05:39:09;;;;;;;19.33;8.02;;;17.10;99.90;;;;;;5046666;28;20041;-85
2022/10/29 05:41:38;;;;;;;27.65;8.23;;;17.10;99.90;;;;;;5048780;28;20041;-85
2022/10/29 05:44:07;;;;;;;27.10;8.95;;;17.10;99.90;;;;;;5047104;28;20052;-85
2022/10/29 05:46:34;;;;;;;23.83;8.20;;;17.10;99.90;;;;;;5051395;28;20041;-85
2022/10/29 05:49:01;;;;;;;20.42;8.57;;;17.10;99.90;;;;;;5030895;28;20057;-85
2022/10/29 05:51:28;;;;;;;16.75;8.05;;;17.10;99.90;;;;;;5050954;28;20124;-85
2022/10/29 05:53:55;;;;;;;20.90;8.70;;;17.00;99.90;;;;;;5033778;28;20040;-85
2022/10/29 05:56:22;;;;;;;24.20;8.32;;;17.00;99.90;;;;;;5050843;28;20424;-85
2022/10/29 05:58:49;;;;;;;18.13;7.88;;;17.00;99.90;;;;;;5050824;28;20045;-85
2022/10/29 06:01:19;;;;;;;19.35;8.32;;;17.00;99.90;;;;;;5051513;28;20134;-85
2022/10/29 06:03:46;;;;;;;23.45;8.73;;;17.00;99.90;;;;;;5064833;22;20056;-79
2022/10/29 06:06:12;;;;;;;21.92;9.02;;;17.00;99.90;;;;;;5050363;28;20044;-79
2022/10/29 06:08:39;;;;;;;29.00;9.00;;;17.00;99.90;;;;;;5041924;28;20486;-79
2022/10/29 06:11:06;;;;;;;21.27;8.48;;;17.00;99.90;;;;;;5057235;28;20449;-79
2022/10/29 06:13:33;;;;;;;18.25;7.88;;;17.00;99.90;;;;;;5055955;28;20040;-79
2022/10/29 06:16:01;;;;;;;15.35;7.28;;;17.00;99.90;;;;;;5070510;28;20044;-79
2022/10/29 06:18:29;;;;;;;22.42;8.30;;;17.00;99.90;;;;;;5064542;28;20059;-79
2022/10/29 06:20:58;;;;;;;22.13;8.70;;;17.00;99.90;;;;;;5051137;28;20794;-83
2022/10/29 06:23:25;;;;;;;17.35;8.40;;;17.00;99.90;;;;;;5050997;28;20485;-82
2022/10/29 06:25:52;;;;;;;23.10;8.73;;;17.00;99.90;;;;;;5055107;28;20590;-82
2022/10/29 06:28:19;;;;;;;27.92;9.07;;;17.00;99.90;;;;;;5065403;28;20049;-82
2022/10/29 06:30:47;;;;;;;24.10;8.98;;;17.00;99.90;;;;;;5044051;28;20041;-82
2022/10/29 06:33:14;;;;;;;21.83;9.15;;;17.00;99.90;;;;;;5045598;28;20045;-81
2022/10/29 06:35:43;;;;;;;23.92;8.98;;;17.00;99.90;;;;;;5042404;28;20336;-81
2022/10/29 06:38:10;;;;;;;24.98;9.10;;;17.10;99.90;;;;;;5047100;28;20041;-82
2022/10/29 06:40:37;;;;;;;26.05;9.63;;;17.10;99.90;;;;;;5049591;28;20048;-83
2022/10/29 06:43:05;;;;;;;25.13;9.13;;;17.10;99.90;;;;;;5044140;28;20047;-83
2022/10/29 06:45:33;;;;;;;20.55;8.80;;;17.10;99.90;;;;;;5048511;28;20040;-81
2022/10/29 06:48:00;;;;;;;22.27;8.55;;;17.10;99.90;;;;;;5045270;28;20049;-82
2022/10/29 06:50:27;;;;;;;25.88;9.10;;;17.10;99.90;;;;;;5048326;28;20041;-82
2022/10/29 06:52:57;;;;;;;27.92;8.77;;;17.10;99.90;;;;;;5048371;28;20678;-83
2022/10/29 06:55:24;;;;;;;26.85;8.90;;;17.10;99.90;;;;;;5044052;28;20108;-84
2022/10/29 06:57:59;;;;;;;23.85;8.77;;;17.10;99.90;;;;;;5042282;28;20033;-84
2022/10/29 07:00:27;;;;;;;21.10;9.50;;;17.10;99.90;;;;;;5041409;28;20566;-85
2022/10/29 07:02:54;;;;;;;20.92;8.27;;;17.10;99.90;;;;;;5048857;28;20041;-85
2022/10/29 07:05:21;;;;;;;19.90;7.80;;;17.10;99.90;;;;;;5048202;28;20041;-84
2022/10/29 07:07:47;;;;;;;20.65;8.57;;;17.20;99.90;;;;;;5021981;28;20045;-85
2022/10/29 07:10:16;;;;;;;25.25;8.15;;;17.20;99.90;;;;;;5047766;28;20076;-83
2022/10/29 07:12:43;;;;;;;27.42;8.73;;;17.20;99.90;;;;;;5049396;28;20041;-91
2022/10/29 07:15:11;;;;;;;26.52;8.93;;;17.20;99.90;;;;;;5031224;28;20132;-87
2022/10/29 07:17:39;;;;;;;20.08;9.07;;;17.20;99.90;;;;;;5045507;28;20044;-94
2022/10/29 07:20:07;;;;;;;25.50;8.65;;;17.20;99.90;;;;;;5031935;28;20559;-88
2022/10/29 07:22:34;;;;;;;21.02;8.52;;;17.20;99.90;;;;;;5049407;28;20045;-93
2022/10/29 07:25:01;;;;;;;22.88;8.88;;;17.20;99.90;;;;;;5030356;28;20128;-85
2022/10/29 07:27:29;;;;;;;24.67;9.13;;;17.30;99.90;;;;;;5044460;28;20045;-84
2022/10/29 07:29:56;;;;;;;21.83;8.45;;;17.30;99.90;;;;;;5047112;28;20043;-87
2022/10/29 07:32:23;;;;;;;27.08;8.90;;;17.30;99.90;;;;;;5046054;28;20032;-86
2022/10/29 07:34:50;;;;;;;21.60;8.80;;;17.30;99.90;;;;;;5043193;28;20037;-84
2022/10/29 07:37:17;;;;;;;22.92;9.10;;;17.30;99.90;;;;;;5044141;28;20033;-84
2022/10/29 07:39:44;;;;;;;19.92;8.25;;;17.40;99.90;;;;;;5043899;28;20045;-87
2022/10/29 07:42:11;;;;;;;20.73;8.18;;;17.40;99.90;;;;;;5045601;28;20128;-84
2022/10/29 07:44:39;;;;;;;18.63;8.45;;;17.40;99.90;;;;;;5042490;28;20497;-86
2022/10/29 07:47:06;;;;;;;21.45;7.18;;;17.40;99.90;;;;;;5046377;28;20048;-87
2022/10/29 07:49:33;;;;;;;23.65;7.50;;;17.50;99.90;;;;;;5040253;28;20528;-88
2022/10/29 07:52:00;;;;;;;22.02;7.78;;;17.50;99.90;;;;;;5029852;28;20041;-88
2022/10/29 07:54:27;;;;;;;26.30;8.45;;;17.50;99.90;;;;;;5046201;28;20057;-87
2022/10/29 07:56:54;;;;;;;18.00;7.07;;;17.60;99.90;;;;;;5039713;28;20506;-87
2022/10/29 07:59:21;;;;;;;35.13;8.60;;;17.60;99.90;;;;;;5047079;28;20073;-88
2022/10/29 08:01:49;;;;;;;16.23;7.53;;;17.60;99.90;;;;;;5063600;28;20044;-86
2022/10/29 08:04:16;;;;;;;27.00;8.13;;;17.70;99.90;;;;;;5035427;28;20047;-88
2022/10/29 08:06:43;;;;;;;22.77;8.07;;;17.70;99.90;;;;;;5055513;28;20076;-85
2022/10/29 08:09:10;;;;;;;28.70;7.63;;;17.80;99.90;;;;;;5031885;28;20124;-88
2022/10/29 08:11:38;;;;;;;19.95;6.65;;;17.80;99.90;;;;;;5011225;28;20053;-87
2022/10/29 08:14:05;;;;;;;22.10;6.93;;;17.80;99.90;;;;;;5035208;28;20048;-87
2022/10/29 08:16:32;;;;;;;25.08;6.82;;;17.90;99.90;;;;;;5048092;28;20128;-83
2022/10/29 08:19:00;;;;;;;26.98;6.90;;;17.90;99.90;;;;;;5048599;28;20079;-89
2022/10/29 08:21:27;;;;;;;20.85;6.78;;;17.90;99.90;;;;;;5049708;28;20041;-91
2022/10/29 08:23:55;;;;;;;19.42;6.70;;;18.00;99.90;;;;;;5038792;28;20131;-89
2022/10/29 08:26:22;;;;;;;21.98;6.93;;;18.00;99.90;;;;;;5031218;28;20099;-89
2022/10/29 08:28:49;;;;;;;23.55;6.75;;;18.00;99.90;;;;;;5047936;28;20059;-88
2022/10/29 08:31:16;;;;;;;16.45;6.72;;;18.10;99.90;;;;;;5048204;28;20056;-91
2022/10/29 08:33:43;;;;;;;17.77;5.25;;;18.10;99.90;;;;;;5033825;28;20493;-93
2022/10/29 08:36:11;;;;;;;17.77;6.38;;;18.10;99.90;;;;;;5040520;28;20160;-93
2022/10/29 08:38:38;;;;;;;13.32;4.85;;;18.20;99.90;;;;;;5027621;28;20145;-88
2022/10/29 08:41:27;;;;;;;11.50;4.82;;;18.20;99.90;;;;;;5015485;28;20045;-89
2022/10/29 08:44:10;;;;;;;14.40;4.97;;;18.30;99.90;;;;;;5047321;28;20135;-88
2022/10/29 08:46:44;;;;;;;14.35;4.85;;;18.30;99.90;;;;;;5048870;28;20041;-92
2022/10/29 08:49:16;;;;;;;14.07;4.65;;;18.40;99.90;;;;;;5022339;28;20045;-94
2022/10/29 08:51:47;;;;;;;16.05;5.45;;;18.30;99.90;;;;;;5043894;28;20052;-95
2022/10/29 09:07:53;;;;;;;15.15;5.32;;;18.70;99.90;;;;;;5022478;28;20128;-85
2022/10/29 09:10:27;;;;;;;17.35;4.75;;;18.70;99.90;;;;;;5026981;28;20052;-85
2022/10/29 09:13:04;;;;;;;16.42;4.78;;;18.80;99.90;;;;;;5019143;28;20046;-85
2022/10/29 09:15:39;;;;;;;18.63;5.10;;;18.80;99.90;;;;;;5023395;28;20045;-86
2022/10/29 09:18:16;;;;;;;14.23;4.80;;;18.80;99.90;;;;;;5018622;28;20149;-85
2022/10/29 09:20:50;;;;;;;14.93;4.72;;;18.80;99.90;;;;;;5018584;28;20502;-85
2022/10/29 09:23:25;;;;;;;13.88;5.35;;;18.90;99.90;;;;;;5024009;28;20041;-86
2022/10/29 09:25:55;;;;;;;13.25;5.25;;;18.90;99.90;;;;;;5026128;28;20129;-85
2022/10/29 09:28:28;;;;;;;25.33;6.65;;;18.90;99.90;;;;;;5027307;28;20041;-85
2022/10/29 09:31:00;;;;;;;19.40;5.22;;;19.00;99.90;;;;;;5027530;28;20417;-85
2022/10/29 09:33:28;;;;;;;14.70;4.97;;;19.00;99.90;;;;;;5023559;28;20045;-85
2022/10/29 09:35:55;;;;;;;16.33;5.20;;;19.10;99.90;;;;;;5017101;28;21915;-86
2022/10/29 09:38:25;;;;;;;20.00;5.20;;;19.10;99.90;;;;;;5021950;28;20056;-86
2022/10/29 09:40:52;;;;;;;17.00;5.03;;;19.10;99.90;;;;;;5019732;28;20060;-85
2022/10/29 09:43:35;;;;;;;17.15;5.47;;;19.10;99.90;;;;;;5025450;28;20052;-85
2022/10/29 09:46:09;;;;;;;14.27;5.20;;;19.10;99.90;;;;;;5028500;28;20037;-86
2022/10/29 09:48:38;;;;;;;19.85;5.28;;;19.20;99.90;;;;;;5025023;28;20117;-85
2022/10/29 09:51:15;;;;;;;15.13;5.30;;;19.20;99.90;;;;;;5023418;28;20044;-88
2022/10/29 09:53:43;;;;;;;17.25;4.97;;;19.20;99.90;;;;;;5028980;28;20049;-87
2022/10/29 09:56:10;;;;;;;15.63;4.80;;;19.40;99.90;;;;;;5027396;28;20739;-87
2022/10/29 09:58:40;;;;;;;20.75;5.40;;;19.30;99.90;;;;;;5039256;28;20046;-89
2022/10/29 10:01:07;;;;;;;13.57;5.30;;;19.20;99.90;;;;;;5028475;28;20041;-90
2022/10/29 10:03:37;;;;;;;15.57;5.20;;;19.20;99.90;;;;;;5026246;28;20038;-89
2022/10/29 10:06:06;;;;;;;20.30;5.63;;;19.30;99.90;;;;;;5021552;28;20537;-89
2022/10/29 10:08:34;;;;;;;16.65;4.93;;;19.30;99.90;;;;;;5029354;28;20037;-89
2022/10/29 10:11:04;;;;;;;15.98;5.43;;;19.30;99.90;;;;;;5027762;28;20524;-88
2022/10/29 10:13:33;;;;;;;14.48;4.78;;;19.30;99.90;;;;;;5022943;28;20049;-88
2022/10/29 10:16:01;;;;;;;20.08;5.70;;;19.30;99.90;;;;;;5029251;28;20087;-89
2022/10/29 10:18:39;;;;;;;13.48;5.00;;;19.40;99.90;;;;;;5027048;28;20525;-89
2022/10/29 10:21:08;;;;;;;15.90;5.53;;;19.40;99.90;;;;;;5021956;28;20046;-88
2022/10/29 10:23:43;;;;;;;20.27;5.75;;;19.40;99.90;;;;;;5027655;28;20136;-89
2022/10/29 10:26:38;;;;;;;14.73;5.38;;;19.40;99.90;;;;;;5028033;28;20498;-88
2022/10/29 10:29:15;;;;;;;16.48;5.35;;;19.50;99.90;;;;;;5026824;28;20581;-89
2022/10/29 10:31:43;;;;;;;21.08;5.20;;;19.40;99.90;;;;;;5027956;28;20050;-88
2022/10/29 10:34:19;;;;;;;23.40;5.70;;;19.50;99.90;;;;;;5029035;28;20049;-86
2022/10/29 10:36:49;;;;;;;13.30;4.82;;;19.50;99.90;;;;;;5030990;28;20065;-89
2022/10/29 10:39:27;;;;;;;16.00;5.07;;;19.50;99.90;;;;;;5019100;28;20049;-88
2022/10/29 10:41:57;;;;;;;17.83;5.03;;;19.60;99.90;;;;;;5030304;28;20047;-82
2022/10/29 10:44:24;;;;;;;15.88;4.95;;;19.60;99.90;;;;;;5018687;28;20046;-81
2022/10/29 10:46:53;;;;;;;31.02;8.77;;;19.60;99.90;;;;;;5029460;28;20033;-82
2022/10/29 10:49:29;;;;;;;26.25;7.10;;;19.60;99.90;;;;;;5020381;28;20047;-78
2022/10/29 10:51:56;;;;;;;20.17;5.90;;;19.60;99.90;;;;;;5022679;28;20100;-80
2022/10/29 10:54:28;;;;;;;19.45;5.70;;;19.70;99.90;;;;;;5023230;28;20055;-80
2022/10/29 10:57:01;;;;;;;20.90;7.20;;;19.70;99.90;;;;;;5033843;28;20033;-80
2022/10/29 10:59:42;;;;;;;17.13;5.30;;;19.70;99.90;;;;;;5024910;28;20406;-82
2022/10/29 11:02:17;;;;;;;19.98;5.30;;;19.70;99.90;;;;;;5011074;28;20060;-82
2022/10/29 11:04:45;;;;;;;15.43;4.93;;;19.70;99.90;;;;;;5009978;28;20120;-80
2022/10/29 11:07:14;;;;;;;19.90;4.82;;;19.70;99.90;;;;;;5011349;28;20414;-80
2022/10/29 11:09:45;;;;;;;22.92;5.90;;;19.70;99.90;;;;;;5028420;28;20120;-80
2022/10/29 11:12:19;;;;;;;18.08;5.55;;;19.80;99.90;;;;;;5027756;28;20053;-80
2022/10/29 11:14:48;;;;;;;21.02;5.78;;;19.80;99.90;;;;;;5029606;28;20052;-78
2022/10/29 11:17:26;;;;;;;19.73;4.95;;;19.90;99.90;;;;;;5017990;28;20372;-84
2022/10/29 11:19:55;;;;;;;15.13;4.32;;;19.80;99.90;;;;;;5010848;28;20042;-81
2022/10/29 11:22:26;;;;;;;13.70;4.95;;;19.90;99.90;;;;;;5010385;28;20073;-81
2022/10/29 11:24:57;;;;;;;16.27;5.13;;;19.90;99.90;;;;;;5009332;28;20077;-81
2022/10/29 11:27:34;;;;;;;20.52;4.88;;;19.90;99.90;;;;;;5017706;28;20033;-81
2022/10/29 11:30:06;;;;;;;15.68;4.53;;;19.90;99.90;;;;;;5023848;28;20053;-81
2022/10/29 11:32:49;;;;;;;13.07;5.07;;;19.90;99.90;;;;;;5028246;28;20052;-81
2022/10/29 11:35:22;;;;;;;16.30;4.82;;;19.90;99.90;;;;;;5026575;28;20132;-81
2022/10/29 11:37:56;;;;;;;18.55;4.82;;;19.90;99.90;;;;;;5024788;28;20417;-81
2022/10/29 11:40:24;;;;;;;15.55;5.15;;;19.90;99.90;;;;;;5013838;28;20410;-81
2022/10/29 11:42:52;;;;;;;17.60;5.25;;;20.00;99.90;;;;;;5028115;28;20045;-82
2022/10/29 11:45:33;;;;;;;17.42;4.70;;;20.00;99.90;;;;;;5028784;28;20522;-91
2022/10/29 11:48:14;;;;;;;17.23;5.07;;;20.00;99.90;;;;;;5023864;28;20354;-82
2022/10/29 11:50:49;;;;;;;16.88;5.00;;;20.00;99.90;;;;;;5026623;28;20057;-82
2022/10/29 11:53:44;;;;;;;18.23;4.95;;;20.00;99.90;;;;;;5022032;28;20119;-81
2022/10/29 11:56:14;;;;;;;16.75;4.47;;;20.00;99.90;;;;;;5020961;28;20049;-82
2022/10/29 11:58:46;;;;;;;18.45;4.88;;;20.00;99.90;;;;;;5024570;28;20044;-82
2022/10/29 12:01:18;;;;;;;13.68;4.65;;;20.00;99.90;;;;;;5023500;28;20449;-82
2022/10/29 12:04:02;;;;;;;16.13;4.43;;;20.00;99.90;;;;;;5047595;22;20048;-81
2022/10/29 12:06:34;;;;;;;17.55;4.90;;;20.00;99.90;;;;;;5064465;28;20046;-84
2022/10/29 12:09:23;;;;;;;12.73;4.95;;;20.00;99.90;;;;;;5066846;28;20072;-80
2022/10/29 12:11:54;;;;;;;18.35;4.80;;;20.00;99.90;;;;;;5069109;28;20032;-79
2022/10/29 12:14:26;;;;;;;14.27;4.32;;;20.10;99.90;;;;;;5053262;28;20045;-80
2022/10/29 12:17:00;;;;;;;19.05;4.55;;;20.10;99.90;;;;;;5050708;28;20130;-87
2022/10/29 12:19:37;;;;;;;15.95;4.40;;;20.10;99.90;;;;;;5043621;28;20044;-79
2022/10/29 12:22:13;;;;;;;17.25;5.20;;;20.10;99.90;;;;;;5040926;28;20052;-79
2022/10/29 12:24:53;;;;;;;17.70;5.10;;;20.10;99.90;;;;;;5044309;28;20047;-79
2022/10/29 12:27:25;;;;;;;16.88;5.30;;;20.10;99.90;;;;;;5046434;28;20037;-79
2022/10/29 12:29:57;;;;;;;17.25;4.95;;;20.10;99.90;;;;;;5047529;28;20382;-79
2022/10/29 12:32:28;;;;;;;17.25;5.63;;;20.10;99.90;;;;;;5042643;28;20037;-79
2022/10/29 12:35:01;;;;;;;13.88;4.50;;;20.20;99.90;;;;;;5030759;28;20049;-79
2022/10/29 12:37:33;;;;;;;17.13;4.32;;;20.10;99.90;;;;;;5048203;28;20044;-77
2022/10/29 12:40:03;;;;;;;17.85;5.45;;;20.20;99.90;;;;;;5048252;28;20401;-80
2022/10/29 12:42:30;;;;;;;17.05;4.32;;;20.20;99.90;;;;;;5045649;28;20040;-79
2022/10/29 12:45:11;;;;;;;14.90;4.63;;;20.20;99.90;;;;;;5046402;28;20186;-79
2022/10/29 12:47:45;;;;;;;15.57;4.82;;;20.20;99.90;;;;;;5045549;28;20494;-79
2022/10/29 12:50:23;;;;;;;23.63;4.97;;;20.30;99.90;;;;;;5050919;28;20784;-79
2022/10/29 12:52:55;;;;;;;13.07;4.30;;;20.30;99.90;;;;;;5043818;28;20038;-80
2022/10/29 12:55:22;;;;;;;15.65;4.68;;;20.30;99.90;;;;;;5040749;28;20508;-79
2022/10/29 12:57:49;;;;;;;17.33;4.47;;;20.30;99.90;;;;;;5044490;28;20108;-79
2022/10/29 13:00:44;;;;;;;16.27;4.53;;;20.30;99.90;;;;;;5048724;28;20532;-79
2022/10/29 13:03:50;;;;;;;11.60;4.78;;;20.30;99.90;;;;;;5050207;28;20757;-79
2022/10/29 13:06:51;;;;;;;15.23;5.00;;;20.30;99.90;;;;;;5051751;28;20055;-79